Time;durP1;ratioP1;P1;durP2;ratioP2;P2;SDS_P1;SDS_P2;PMS_P1;PMS_P2;Temp;Humidity;BMP_temperature;BMP_pressure;BME280_temperature;BME280_humidity;BME280_pressure;Samples;Min_cycle;Max_cycle;Signal;HPM_P1;HPM_P2
2023/03/04 00:00:06;;;;;;;60.72;29.40;;;2.20;99.90;;;;;;4947011;28;20086;-74
2023/03/04 00:02:31;;;;;;;63.47;29.20;;;2.20;99.90;;;;;;4948183;28;20023;-75
2023/03/04 00:04:57;;;;;;;63.95;28.98;;;2.30;99.90;;;;;;4950004;28;20102;-74
2023/03/04 00:07:22;;;;;;;61.75;29.80;;;2.30;99.90;;;;;;4953782;28;20322;-74
2023/03/04 00:09:48;;;;;;;64.88;31.40;;;2.20;99.90;;;;;;4950320;28;20031;-75
2023/03/04 00:12:14;;;;;;;69.75;29.67;;;2.20;99.90;;;;;;4948369;28;20036;-75
2023/03/04 00:14:40;;;;;;;65.38;30.55;;;2.20;99.90;;;;;;4952572;28;20114;-75
2023/03/04 00:17:06;;;;;;;60.55;29.05;;;2.20;99.90;;;;;;4950838;28;20035;-74
2023/03/04 00:19:32;;;;;;;62.17;30.15;;;2.20;99.90;;;;;;4948875;28;20056;-74
2023/03/04 00:21:57;;;;;;;60.38;28.95;;;2.10;99.90;;;;;;4946876;28;20031;-74
2023/03/04 00:24:23;;;;;;;66.13;30.15;;;2.10;99.90;;;;;;4950392;28;20058;-74
2023/03/04 00:26:50;;;;;;;63.33;29.05;;;2.00;99.90;;;;;;4951819;28;20079;-75
2023/03/04 00:29:15;;;;;;;60.88;29.80;;;2.00;99.90;;;;;;4951690;28;20434;-74
2023/03/04 00:31:41;;;;;;;64.10;29.33;;;2.00;99.90;;;;;;4954420;28;20031;-74
2023/03/04 00:34:06;;;;;;;63.58;28.95;;;2.00;99.90;;;;;;4945104;28;20093;-75
2023/03/04 00:36:32;;;;;;;61.25;29.10;;;1.90;99.90;;;;;;4947197;28;20031;-74
2023/03/04 00:38:58;;;;;;;67.97;28.65;;;1.90;99.90;;;;;;4949951;29;20050;-74
2023/03/04 00:41:23;;;;;;;60.45;28.17;;;1.90;99.90;;;;;;4949646;28;20058;-75
2023/03/04 00:43:49;;;;;;;62.40;30.52;;;1.80;99.90;;;;;;4951001;28;20199;-74
2023/03/04 00:46:15;;;;;;;68.68;32.28;;;1.90;99.90;;;;;;4948958;28;20058;-75
2023/03/04 00:48:40;;;;;;;63.60;31.38;;;1.90;99.90;;;;;;4951576;28;20035;-74
2023/03/04 00:51:06;;;;;;;62.25;29.13;;;1.80;99.90;;;;;;4952895;29;20369;-75
2023/03/04 00:53:31;;;;;;;65.20;31.60;;;1.80;99.90;;;;;;4948608;28;20023;-74
2023/03/04 00:55:57;;;;;;;63.58;28.83;;;1.80;99.90;;;;;;4950029;28;20023;-75
2023/03/04 00:58:23;;;;;;;63.53;29.05;;;1.70;99.90;;;;;;4945421;28;20500;-74
2023/03/04 01:00:49;;;;;;;65.00;29.42;;;1.70;99.90;;;;;;4947843;28;20126;-74
2023/03/04 01:03:14;;;;;;;58.00;30.13;;;1.60;99.90;;;;;;4955616;28;20018;-75
2023/03/04 01:05:40;;;;;;;65.60;29.55;;;1.70;99.90;;;;;;4949703;28;20039;-74
2023/03/04 01:08:06;;;;;;;60.85;27.27;;;1.60;99.90;;;;;;4945283;28;20146;-74
2023/03/04 01:10:31;;;;;;;68.30;29.17;;;1.60;99.90;;;;;;4949541;28;20105;-74
2023/03/04 01:12:57;;;;;;;67.05;29.00;;;1.60;99.90;;;;;;4946175;28;20059;-74
2023/03/04 01:15:23;;;;;;;68.28;30.60;;;1.50;99.90;;;;;;4948704;28;20031;-75
2023/03/04 01:17:49;;;;;;;61.85;28.40;;;1.50;99.90;;;;;;4949380;28;20023;-74
2023/03/04 01:20:15;;;;;;;57.90;27.05;;;1.40;99.90;;;;;;4946743;28;20031;-74
2023/03/04 01:22:41;;;;;;;62.58;29.02;;;1.40;99.90;;;;;;4945306;28;20476;-74
2023/03/04 01:25:07;;;;;;;56.45;26.55;;;1.40;99.90;;;;;;4946762;28;20338;-75
2023/03/04 01:27:33;;;;;;;62.83;29.52;;;1.40;99.90;;;;;;4964240;28;20029;-74
2023/03/04 01:29:59;;;;;;;68.55;30.38;;;1.30;99.90;;;;;;4943865;29;20437;-75
2023/03/04 01:32:24;;;;;;;64.00;28.15;;;1.30;99.90;;;;;;4946237;28;20448;-74
2023/03/04 01:34:50;;;;;;;57.65;26.45;;;1.20;99.90;;;;;;4948026;28;20368;-73
2023/03/04 01:37:16;;;;;;;62.50;28.08;;;1.20;99.90;;;;;;4943734;28;20054;-74
2023/03/04 01:39:41;;;;;;;61.10;28.92;;;1.10;99.90;;;;;;4943712;28;20035;-74
2023/03/04 01:42:19;;;;;;;58.53;27.42;;;1.10;99.90;;;;;;4947414;28;20031;-73
2023/03/04 01:44:46;;;;;;;65.68;29.55;;;1.10;99.90;;;;;;4947413;28;20511;-73
2023/03/04 01:47:12;;;;;;;64.10;29.17;;;1.00;99.90;;;;;;4947081;28;20583;-73
2023/03/04 01:49:38;;;;;;;64.30;28.00;;;1.00;99.90;;;;;;4946021;29;20027;-74
2023/03/04 01:52:05;;;;;;;60.83;28.55;;;1.00;99.90;;;;;;4946199;28;20588;-74
2023/03/04 01:54:31;;;;;;;66.82;28.83;;;1.00;99.90;;;;;;4946960;29;20040;-74
2023/03/04 01:56:59;;;;;;;67.15;28.88;;;1.00;99.90;;;;;;4947444;28;20090;-73
2023/03/04 01:59:29;;;;;;;66.50;30.38;;;1.00;99.90;;;;;;4962180;28;20035;-73
2023/03/04 02:01:57;;;;;;;62.10;28.45;;;1.00;99.90;;;;;;4948254;28;20113;-73
2023/03/04 02:04:30;;;;;;;63.47;28.73;;;1.00;99.90;;;;;;4962451;28;20031;-74
2023/03/04 02:06:57;;;;;;;65.05;30.27;;;1.00;99.90;;;;;;4949304;28;20019;-74
2023/03/04 02:09:22;;;;;;;61.50;28.88;;;1.00;99.90;;;;;;4948816;28;20031;-74
2023/03/04 02:11:50;;;;;;;68.13;29.58;;;0.90;99.90;;;;;;4951615;28;20360;-74
2023/03/04 02:14:16;;;;;;;65.68;28.33;;;0.90;99.90;;;;;;4945381;28;20042;-74
2023/03/04 02:16:43;;;;;;;75.55;30.70;;;0.90;99.90;;;;;;4949266;28;20099;-74
2023/03/04 02:19:29;;;;;;;68.90;31.65;;;0.90;99.90;;;;;;4953666;28;20035;-74
2023/03/04 02:21:55;;;;;;;75.32;33.92;;;0.80;99.90;;;;;;4946915;28;20037;-74
2023/03/04 02:24:44;;;;;;;69.97;32.17;;;0.80;99.90;;;;;;4950883;28;20043;-74
2023/03/04 02:27:10;;;;;;;72.10;30.33;;;0.80;99.90;;;;;;4946277;28;20110;-74
2023/03/04 02:29:35;;;;;;;65.97;28.38;;;0.80;99.90;;;;;;4947838;28;20023;-74
2023/03/04 02:32:01;;;;;;;65.80;29.83;;;0.80;99.90;;;;;;4947580;28;20041;-74
2023/03/04 02:34:30;;;;;;;63.40;29.30;;;0.70;99.90;;;;;;4941803;23;20111;-73
2023/03/04 02:36:56;;;;;;;71.75;32.45;;;0.70;99.90;;;;;;4929722;29;20064;-73
2023/03/04 02:39:40;;;;;;;69.88;30.38;;;0.60;99.90;;;;;;4926645;29;20039;-73
2023/03/04 02:42:06;;;;;;;67.70;29.95;;;0.60;99.90;;;;;;4929700;29;20035;-73
2023/03/04 02:44:34;;;;;;;67.50;31.35;;;0.60;99.90;;;;;;4930094;29;20043;-74
2023/03/04 02:47:02;;;;;;;71.55;31.35;;;0.60;99.90;;;;;;4928672;29;20028;-73
2023/03/04 02:49:29;;;;;;;66.45;29.98;;;0.60;99.90;;;;;;4927072;29;20048;-74
2023/03/04 02:52:01;;;;;;;64.88;29.27;;;0.60;99.90;;;;;;4924733;29;20497;-74
2023/03/04 02:54:27;;;;;;;72.60;29.48;;;0.50;99.90;;;;;;4926971;29;20034;-73
2023/03/04 02:56:55;;;;;;;65.95;30.42;;;0.60;99.90;;;;;;4924527;29;20412;-75
2023/03/04 02:59:21;;;;;;;67.13;31.25;;;0.60;99.90;;;;;;4923498;29;20086;-73
2023/03/04 03:01:47;;;;;;;66.50;31.15;;;0.60;99.90;;;;;;4941470;28;20039;-74
2023/03/04 03:04:13;;;;;;;66.47;30.77;;;0.60;99.90;;;;;;4927713;29;20334;-74
2023/03/04 03:06:39;;;;;;;66.57;29.08;;;0.60;99.90;;;;;;4929806;29;20110;-73
2023/03/04 03:09:05;;;;;;;70.88;29.92;;;0.50;99.90;;;;;;4932213;29;20310;-73
2023/03/04 03:11:31;;;;;;;68.53;30.35;;;0.50;99.90;;;;;;4931179;29;20040;-73
2023/03/04 03:13:56;;;;;;;67.97;32.30;;;0.50;99.90;;;;;;4931598;29;20039;-73
2023/03/04 03:16:22;;;;;;;61.47;28.48;;;0.50;99.90;;;;;;4932465;29;20043;-74
2023/03/04 03:18:48;;;;;;;64.25;29.80;;;0.50;99.90;;;;;;4927531;29;20615;-73
2023/03/04 03:21:14;;;;;;;60.92;28.48;;;0.50;99.90;;;;;;4941508;28;20032;-75
2023/03/04 03:23:39;;;;;;;68.68;31.00;;;0.50;99.90;;;;;;4940983;28;20428;-73
2023/03/04 03:26:05;;;;;;;64.20;28.13;;;0.40;99.90;;;;;;4927573;29;20032;-74
2023/03/04 03:28:31;;;;;;;62.92;29.25;;;0.40;99.90;;;;;;4926588;29;20416;-75
2023/03/04 03:30:57;;;;;;;62.83;30.25;;;0.40;99.90;;;;;;4927533;29;20038;-74
2023/03/04 03:33:22;;;;;;;61.05;28.30;;;0.40;99.90;;;;;;4926656;29;20162;-74
2023/03/04 03:35:48;;;;;;;70.63;31.50;;;0.40;99.90;;;;;;4929056;29;20091;-73
2023/03/04 03:38:14;;;;;;;69.15;31.60;;;0.40;99.90;;;;;;4927911;29;20027;-74
2023/03/04 03:40:39;;;;;;;61.08;27.83;;;0.40;99.90;;;;;;4929676;29;20071;-73
2023/03/04 03:43:05;;;;;;;64.63;30.77;;;0.40;99.90;;;;;;4947938;28;20027;-74
2023/03/04 03:45:31;;;;;;;63.15;28.88;;;0.40;99.90;;;;;;4931047;29;20028;-73
2023/03/04 03:47:57;;;;;;;64.45;28.75;;;0.40;99.90;;;;;;4931812;28;20047;-74
2023/03/04 03:50:22;;;;;;;63.13;27.55;;;0.40;99.90;;;;;;4943638;28;20032;-74
2023/03/04 03:52:48;;;;;;;68.00;29.38;;;0.40;99.90;;;;;;4932783;29;20163;-73
2023/03/04 03:55:14;;;;;;;65.55;27.75;;;0.40;99.90;;;;;;4926562;28;20394;-73
2023/03/04 03:57:39;;;;;;;65.90;30.00;;;0.30;99.90;;;;;;4931476;29;20309;-73
2023/03/04 04:00:06;;;;;;;63.17;29.60;;;0.30;99.90;;;;;;4931280;29;20024;-73
2023/03/04 04:02:31;;;;;;;67.25;29.00;;;0.30;99.90;;;;;;4929755;29;20039;-74
2023/03/04 04:04:57;;;;;;;60.78;29.05;;;0.30;99.90;;;;;;4933294;29;20020;-76
2023/03/04 04:07:23;;;;;;;64.32;29.25;;;0.30;99.90;;;;;;4930701;29;20032;-73
2023/03/04 04:09:48;;;;;;;61.53;28.02;;;0.30;99.90;;;;;;4935536;29;20106;-74
2023/03/04 04:12:15;;;;;;;65.03;28.85;;;0.20;99.90;;;;;;4935648;29;20163;-73
2023/03/04 04:14:42;;;;;;;66.70;28.70;;;0.20;99.90;;;;;;4930779;29;20115;-73
2023/03/04 04:17:09;;;;;;;60.10;28.10;;;0.20;99.90;;;;;;4934094;29;20416;-74
2023/03/04 04:19:35;;;;;;;64.05;27.58;;;0.20;99.90;;;;;;4931261;29;20030;-74
2023/03/04 04:22:01;;;;;;;69.00;30.75;;;0.20;99.90;;;;;;4935331;29;20193;-73
2023/03/04 04:24:27;;;;;;;73.60;31.27;;;0.20;99.90;;;;;;4932397;29;20024;-73
2023/03/04 04:26:53;;;;;;;59.42;27.92;;;0.20;99.90;;;;;;4934767;29;20106;-73
2023/03/04 04:29:18;;;;;;;67.53;29.67;;;0.20;99.90;;;;;;4948123;28;20026;-74
2023/03/04 04:31:44;;;;;;;59.20;28.42;;;0.20;99.90;;;;;;4933699;29;20034;-73
2023/03/04 04:34:09;;;;;;;64.38;29.05;;;0.20;99.90;;;;;;4934582;28;20040;-73
2023/03/04 04:36:35;;;;;;;62.15;29.63;;;0.10;99.90;;;;;;4944458;28;20079;-74
2023/03/04 04:39:01;;;;;;;65.68;28.90;;;0.10;99.90;;;;;;4935625;29;20036;-73
2023/03/04 04:41:38;;;;;;;69.80;30.23;;;0.10;99.90;;;;;;4932530;29;20070;-74
2023/03/04 04:44:04;;;;;;;68.00;29.65;;;0.20;99.90;;;;;;4932214;29;20027;-73
2023/03/04 04:46:30;;;;;;;65.85;29.98;;;0.10;99.90;;;;;;4932425;29;20038;-73
2023/03/04 04:48:55;;;;;;;74.50;30.90;;;0.10;99.90;;;;;;4930644;29;20034;-74
2023/03/04 04:51:21;;;;;;;69.38;31.48;;;0.10;99.90;;;;;;4947660;28;20393;-74
2023/03/04 04:53:47;;;;;;;66.95;29.75;;;0.10;99.90;;;;;;4929746;29;20036;-73
2023/03/04 04:56:19;;;;;;;63.17;28.25;;;0.10;99.90;;;;;;4929562;29;20028;-74
2023/03/04 04:58:45;;;;;;;70.65;29.63;;;0.10;99.90;;;;;;4931886;29;20122;-73
2023/03/04 05:01:12;;;;;;;70.22;30.65;;;0.00;99.90;;;;;;4933020;29;20115;-73
2023/03/04 05:03:38;;;;;;;65.03;29.58;;;0.00;99.90;;;;;;4933780;28;20023;-73
2023/03/04 05:06:06;;;;;;;63.83;29.90;;;0.00;99.90;;;;;;4930397;29;20703;-73
2023/03/04 05:08:32;;;;;;;70.63;29.73;;;0.00;99.90;;;;;;4931274;29;20032;-74
2023/03/04 05:10:58;;;;;;;67.97;29.88;;;-0.10;99.90;;;;;;4927670;29;20048;-75
2023/03/04 05:13:24;;;;;;;70.60;30.75;;;-0.10;99.90;;;;;;4925860;28;20326;-74
2023/03/04 05:15:54;;;;;;;64.72;28.65;;;-0.10;99.90;;;;;;4932894;29;20023;-75
2023/03/04 05:18:21;;;;;;;60.58;29.42;;;-0.10;99.90;;;;;;4928995;29;20074;-75
2023/03/04 05:20:59;;;;;;;60.53;29.00;;;-0.10;99.90;;;;;;4941578;28;20036;-74
2023/03/04 05:23:27;;;;;;;66.43;30.65;;;-0.20;99.90;;;;;;4930629;29;20059;-74
2023/03/04 05:25:53;;;;;;;64.63;30.08;;;-0.20;99.90;;;;;;4934498;29;20031;-74
2023/03/04 05:28:19;;;;;;;64.53;28.23;;;-0.20;99.90;;;;;;4928867;29;20497;-76
2023/03/04 05:30:45;;;;;;;70.13;31.65;;;-0.20;99.90;;;;;;4930844;29;20114;-73
2023/03/04 05:33:13;;;;;;;70.65;31.52;;;-0.20;99.90;;;;;;4934842;29;20444;-74
2023/03/04 05:35:40;;;;;;;72.70;29.50;;;-0.20;99.90;;;;;;4926975;29;20032;-73
2023/03/04 05:38:09;;;;;;;73.22;30.13;;;-0.30;99.90;;;;;;4930726;29;20055;-73
2023/03/04 05:40:34;;;;;;;66.03;28.73;;;-0.40;99.90;;;;;;4933670;29;20024;-73
2023/03/04 05:43:00;;;;;;;66.22;28.88;;;-0.40;99.90;;;;;;4931421;29;20441;-73
2023/03/04 05:45:26;;;;;;;70.53;30.15;;;-0.50;99.90;;;;;;4946445;29;20035;-74
2023/03/04 05:47:53;;;;;;;62.83;28.63;;;-0.50;99.90;;;;;;4926973;29;20031;-74
2023/03/04 05:50:19;;;;;;;65.25;28.15;;;-0.50;99.90;;;;;;4927960;29;20028;-73
2023/03/04 05:52:45;;;;;;;60.97;29.08;;;-0.50;99.90;;;;;;4930265;29;20028;-72
2023/03/04 05:55:11;;;;;;;68.55;29.00;;;-0.60;99.90;;;;;;4960475;28;20400;-72
2023/03/04 05:57:36;;;;;;;67.47;29.23;;;-0.60;99.90;;;;;;4930319;29;20047;-73
2023/03/04 06:00:04;;;;;;;63.20;28.48;;;-0.60;99.90;;;;;;4931218;29;20028;-73
2023/03/04 06:02:30;;;;;;;68.88;30.30;;;-0.70;99.90;;;;;;4930138;29;20527;-72
2023/03/04 06:04:56;;;;;;;60.30;28.13;;;-0.70;99.90;;;;;;4931702;29;20274;-72
2023/03/04 06:07:21;;;;;;;71.43;30.05;;;-0.70;99.90;;;;;;4928501;29;20028;-72
2023/03/04 06:09:47;;;;;;;65.82;30.15;;;-0.70;99.90;;;;;;4930374;29;20114;-72
2023/03/04 06:12:12;;;;;;;66.32;29.52;;;-0.70;99.90;;;;;;4928483;29;20110;-73
2023/03/04 06:14:38;;;;;;;67.60;28.50;;;-0.70;99.90;;;;;;4932667;29;20035;-72
2023/03/04 06:17:04;;;;;;;68.82;30.73;;;-0.70;99.90;;;;;;4931862;29;20492;-72
2023/03/04 06:19:29;;;;;;;67.80;30.70;;;-0.70;99.90;;;;;;4929330;29;20480;-72
2023/03/04 06:21:55;;;;;;;66.10;29.55;;;-0.60;99.90;;;;;;4942886;28;20023;-72
2023/03/04 06:24:21;;;;;;;70.97;29.17;;;-0.60;99.90;;;;;;4932067;28;20036;-71
2023/03/04 06:26:46;;;;;;;71.53;30.42;;;-0.60;99.90;;;;;;4932627;29;20023;-72
2023/03/04 06:29:12;;;;;;;72.38;31.00;;;-0.60;99.90;;;;;;4933071;29;20032;-71
2023/03/04 06:31:40;;;;;;;66.25;31.00;;;-0.50;99.90;;;;;;4936267;29;20027;-72
2023/03/04 06:34:06;;;;;;;63.40;29.95;;;-0.50;99.90;;;;;;4931919;29;20046;-72
2023/03/04 06:36:32;;;;;;;70.60;30.52;;;-0.50;99.90;;;;;;4946793;28;20040;-72
2023/03/04 06:38:58;;;;;;;71.03;30.08;;;-0.50;99.90;;;;;;4933301;29;20036;-72
2023/03/04 06:41:23;;;;;;;68.95;31.38;;;-0.50;99.90;;;;;;4931830;29;20527;-72
2023/03/04 06:43:52;;;;;;;71.50;30.35;;;-0.50;99.90;;;;;;4931210;29;20032;-70
2023/03/04 06:46:18;;;;;;;70.90;30.13;;;-0.40;99.90;;;;;;4930761;29;20484;-73
2023/03/04 06:48:43;;;;;;;68.63;30.35;;;-0.50;99.90;;;;;;4928492;29;20047;-72
2023/03/04 06:51:10;;;;;;;68.63;30.98;;;-0.50;99.90;;;;;;4930045;29;20035;-73
2023/03/04 06:53:37;;;;;;;72.63;30.73;;;-0.40;99.90;;;;;;4930180;29;20032;-73
2023/03/04 06:56:03;;;;;;;74.13;32.00;;;-0.40;99.90;;;;;;4933393;29;20099;-73
2023/03/04 06:58:29;;;;;;;74.43;32.45;;;-0.30;99.90;;;;;;4939982;29;20047;-73
2023/03/04 07:00:54;;;;;;;67.32;31.60;;;-0.30;99.90;;;;;;4930447;29;20036;-73
2023/03/04 07:03:20;;;;;;;72.45;32.15;;;-0.20;99.90;;;;;;4963610;28;20035;-73
2023/03/04 07:05:46;;;;;;;75.05;31.33;;;-0.10;99.90;;;;;;4924270;29;20032;-73
2023/03/04 07:08:12;;;;;;;66.97;31.55;;;-0.10;99.90;;;;;;4931020;29;20026;-74
2023/03/04 07:10:37;;;;;;;71.72;31.60;;;-0.10;99.90;;;;;;4926665;29;20029;-73
2023/03/04 07:13:03;;;;;;;72.88;32.90;;;-0.10;99.90;;;;;;4949697;28;20371;-73
2023/03/04 07:15:29;;;;;;;69.22;31.05;;;0.00;99.90;;;;;;4934986;29;20473;-74
2023/03/04 07:17:54;;;;;;;68.22;30.33;;;0.00;99.90;;;;;;4932657;29;20038;-73
2023/03/04 07:20:20;;;;;;;70.97;31.05;;;0.10;99.90;;;;;;4948187;28;20062;-74
2023/03/04 07:22:46;;;;;;;67.07;31.02;;;0.10;99.90;;;;;;4935165;29;20059;-73
2023/03/04 07:25:12;;;;;;;66.43;30.27;;;0.10;99.90;;;;;;4949394;29;20393;-73
2023/03/04 07:27:39;;;;;;;70.28;31.02;;;0.20;99.90;;;;;;4935701;29;20023;-74
2023/03/04 07:30:06;;;;;;;74.63;33.72;;;0.20;99.90;;;;;;4945996;28;20046;-72
2023/03/04 07:32:33;;;;;;;67.40;31.88;;;0.30;99.90;;;;;;4931534;29;20398;-72
2023/03/04 07:34:59;;;;;;;78.78;33.15;;;0.30;99.90;;;;;;4937834;29;20385;-73
2023/03/04 07:37:24;;;;;;;74.47;32.40;;;0.40;99.90;;;;;;4942821;29;20035;-74
2023/03/04 07:39:50;;;;;;;70.53;32.15;;;0.50;99.90;;;;;;4935389;29;20444;-74
2023/03/04 07:42:15;;;;;;;70.43;32.05;;;0.50;99.90;;;;;;4941344;29;20038;-73
2023/03/04 07:44:41;;;;;;;71.30;31.45;;;0.50;99.90;;;;;;4935611;29;20031;-73
2023/03/04 07:47:07;;;;;;;71.35;33.15;;;0.50;99.90;;;;;;4935832;29;20853;-74
2023/03/04 07:49:32;;;;;;;72.97;31.10;;;0.60;99.90;;;;;;4932877;29;20023;-75
2023/03/04 07:52:02;;;;;;;71.82;33.42;;;0.70;99.90;;;;;;4933786;29;20039;-73
2023/03/04 07:54:28;;;;;;;72.10;31.90;;;0.60;99.90;;;;;;4951649;28;20039;-73
2023/03/04 07:56:53;;;;;;;74.25;34.63;;;0.70;99.90;;;;;;4940905;28;20469;-74
2023/03/04 07:59:19;;;;;;;71.78;32.55;;;0.80;99.90;;;;;;4939437;29;20036;-73
2023/03/04 08:01:45;;;;;;;68.40;30.77;;;0.80;99.90;;;;;;4930794;29;20028;-78
2023/03/04 08:04:10;;;;;;;70.55;32.70;;;0.90;99.90;;;;;;4935331;29;20027;-73
2023/03/04 08:06:36;;;;;;;70.32;33.33;;;0.90;99.90;;;;;;4962181;28;20028;-73
2023/03/04 08:09:05;;;;;;;69.55;32.40;;;1.00;99.90;;;;;;4936720;29;20027;-73
2023/03/04 08:11:31;;;;;;;67.78;32.63;;;1.10;99.90;;;;;;4950217;28;20086;-72
2023/03/04 08:13:58;;;;;;;71.20;32.08;;;1.10;99.90;;;;;;4935415;29;20036;-73
2023/03/04 08:16:24;;;;;;;71.75;32.22;;;1.10;99.90;;;;;;4930914;29;20028;-76
2023/03/04 08:18:52;;;;;;;70.90;32.40;;;1.20;99.90;;;;;;4950579;28;20233;-74
2023/03/04 08:21:20;;;;;;;69.28;33.08;;;1.20;99.90;;;;;;4935893;29;20205;-74
2023/03/04 08:23:46;;;;;;;64.25;30.17;;;1.30;99.90;;;;;;4932067;29;20107;-73
2023/03/04 08:26:17;;;;;;;58.10;26.30;;;1.30;99.90;;;;;;4931226;29;20031;-74
2023/03/04 08:28:44;;;;;;;57.35;25.23;;;1.30;99.90;;;;;;4931963;29;20501;-73
2023/03/04 08:31:14;;;;;;;60.30;27.48;;;1.30;99.90;;;;;;4935090;29;20035;-72
2023/03/04 08:33:40;;;;;;;58.70;26.02;;;1.30;99.90;;;;;;4960489;23;20142;-73
2023/03/04 08:36:06;;;;;;;62.08;25.33;;;1.30;99.90;;;;;;4969904;28;20301;-72
2023/03/04 08:38:32;;;;;;;52.72;24.05;;;1.30;99.90;;;;;;4961763;28;20065;-73
2023/03/04 08:40:58;;;;;;;49.97;24.25;;;1.40;99.90;;;;;;4967756;28;20031;-71
2023/03/04 08:43:25;;;;;;;48.75;22.20;;;1.40;99.90;;;;;;4964113;28;20031;-72
2023/03/04 08:45:55;;;;;;;50.70;22.65;;;1.50;99.90;;;;;;4965299;28;20062;-73
2023/03/04 08:48:21;;;;;;;52.03;24.30;;;1.40;99.90;;;;;;4968646;28;20035;-72
2023/03/04 08:50:48;;;;;;;49.65;21.95;;;1.40;99.90;;;;;;4972891;28;20026;-74
2023/03/04 08:53:15;;;;;;;47.42;21.08;;;1.40;99.90;;;;;;4969657;28;20020;-72
2023/03/04 08:55:41;;;;;;;45.08;20.02;;;1.40;99.90;;;;;;4965613;28;20030;-73
2023/03/04 08:58:08;;;;;;;50.72;21.02;;;1.40;99.90;;;;;;4961862;28;20029;-75
2023/03/04 09:00:34;;;;;;;46.13;20.73;;;1.30;99.90;;;;;;4964858;28;20555;-74
2023/03/04 09:03:00;;;;;;;43.35;21.30;;;1.30;99.90;;;;;;4968377;28;20042;-72
2023/03/04 09:05:26;;;;;;;46.80;20.45;;;1.30;99.90;;;;;;4967595;28;20031;-72
2023/03/04 09:07:53;;;;;;;43.78;20.58;;;1.30;99.90;;;;;;4966260;28;20023;-73
2023/03/04 09:10:18;;;;;;;44.25;21.63;;;1.30;99.90;;;;;;4968808;28;20721;-73
2023/03/04 09:12:45;;;;;;;41.97;18.98;;;1.30;99.90;;;;;;4969262;28;20050;-73
2023/03/04 09:15:11;;;;;;;44.67;20.15;;;1.20;99.90;;;;;;4968956;28;20476;-72
2023/03/04 09:17:37;;;;;;;45.47;20.98;;;1.10;99.90;;;;;;4971578;28;20113;-74
2023/03/04 09:20:04;;;;;;;47.55;20.10;;;1.20;99.90;;;;;;4968111;28;20046;-72
2023/03/04 09:22:30;;;;;;;45.35;19.63;;;1.20;99.90;;;;;;4972338;28;20066;-73
2023/03/04 09:24:56;;;;;;;44.63;20.50;;;1.10;99.90;;;;;;4970628;28;20088;-73
2023/03/04 09:27:22;;;;;;;45.53;19.70;;;1.20;99.90;;;;;;4966806;28;20027;-72
2023/03/04 09:29:48;;;;;;;51.03;20.80;;;1.10;99.90;;;;;;4963826;28;20031;-73
2023/03/04 09:32:14;;;;;;;48.75;20.75;;;1.10;99.90;;;;;;4968043;28;20032;-73
2023/03/04 09:34:39;;;;;;;46.60;20.77;;;1.20;99.90;;;;;;4966503;28;20121;-73
2023/03/04 09:37:05;;;;;;;48.28;20.48;;;1.20;99.90;;;;;;4959348;28;20507;-72
2023/03/04 09:39:31;;;;;;;41.38;20.45;;;1.20;99.90;;;;;;4964436;28;20031;-73
2023/03/04 09:41:58;;;;;;;40.38;18.90;;;1.30;99.90;;;;;;4968757;28;20035;-73
2023/03/04 09:44:39;;;;;;;42.80;20.05;;;1.30;99.90;;;;;;4966882;28;20034;-73
2023/03/04 09:47:11;;;;;;;43.85;19.40;;;1.20;99.90;;;;;;4963276;28;20042;-73
2023/03/04 09:49:44;;;;;;;40.13;17.70;;;1.10;99.90;;;;;;4965182;28;20026;-73
2023/03/04 09:52:20;;;;;;;37.40;17.33;;;1.10;99.90;;;;;;4967042;28;20117;-73
2023/03/04 09:55:02;;;;;;;48.45;20.35;;;1.10;99.90;;;;;;4965947;28;20145;-72
2023/03/04 09:57:40;;;;;;;38.38;18.52;;;1.10;99.90;;;;;;4971594;28;20027;-73
2023/03/04 10:00:20;;;;;;;40.88;18.65;;;1.10;99.90;;;;;;4963445;28;20045;-74
2023/03/04 10:03:04;;;;;;;41.83;18.63;;;1.00;99.90;;;;;;4963247;28;20039;-74
2023/03/04 10:05:33;;;;;;;38.65;18.13;;;1.10;99.90;;;;;;4968060;28;20134;-73
2023/03/04 10:08:06;;;;;;;43.40;17.92;;;1.00;99.90;;;;;;4989162;28;20170;-73
2023/03/04 10:10:34;;;;;;;;;;;1.10;99.90;;;;;;4972278;28;20022;-73
2023/03/04 10:13:01;;;;;;;36.53;16.08;;;1.20;99.90;;;;;;4965732;28;19914;-74
2023/03/04 10:15:38;;;;;;;34.70;16.60;;;1.20;99.90;;;;;;4967619;28;20882;-73
2023/03/04 10:18:31;;;;;;;32.30;14.02;;;1.20;99.90;;;;;;4970708;28;20023;-73
2023/03/04 10:21:02;;;;;;;31.25;15.32;;;1.10;99.90;;;;;;4962969;28;20054;-73
2023/03/04 10:23:30;;;;;;;31.50;14.77;;;1.10;99.90;;;;;;4966463;28;20022;-73
2023/03/04 10:25:59;;;;;;;34.28;15.43;;;1.10;99.90;;;;;;4966915;28;20470;-73
2023/03/04 10:28:30;;;;;;;30.67;14.23;;;1.20;99.90;;;;;;4967958;28;20499;-74
2023/03/04 10:31:05;;;;;;;37.58;16.40;;;1.10;99.90;;;;;;4962393;28;20042;-73
2023/03/04 10:33:36;;;;;;;33.38;15.07;;;1.30;99.90;;;;;;4961986;28;20093;-73
2023/03/04 10:36:14;;;;;;;28.35;14.13;;;1.30;99.90;;;;;;4963763;28;20120;-73
2023/03/04 10:38:41;;;;;;;32.83;14.70;;;1.40;99.90;;;;;;4961560;28;20034;-73
2023/03/04 10:41:14;;;;;;;32.80;14.82;;;1.50;99.90;;;;;;4969493;28;20043;-75
2023/03/04 10:43:41;;;;;;;34.38;16.02;;;1.50;99.90;;;;;;4965956;28;20113;-73
2023/03/04 10:46:10;;;;;;;37.08;15.15;;;1.60;99.90;;;;;;4972535;28;20027;-73
2023/03/04 10:48:40;;;;;;;36.17;16.58;;;1.60;99.90;;;;;;4970106;28;20419;-74
2023/03/04 10:51:26;;;;;;;39.80;17.00;;;1.60;99.90;;;;;;4969745;28;20027;-73
2023/03/04 10:54:02;;;;;;;34.22;15.35;;;1.50;99.90;;;;;;4969923;28;20038;-74
2023/03/04 10:56:37;;;;;;;35.22;16.40;;;1.50;99.90;;;;;;4961944;28;20472;-73
2023/03/04 10:59:28;;;;;;;33.20;14.98;;;1.50;99.90;;;;;;4965280;28;20059;-73
2023/03/04 11:01:53;;;;;;;35.13;16.08;;;1.50;99.90;;;;;;4963976;28;20041;-74
2023/03/04 11:04:24;;;;;;;32.72;15.95;;;1.50;99.90;;;;;;4963314;28;20491;-73
2023/03/04 11:06:50;;;;;;;38.90;16.25;;;1.50;99.90;;;;;;4968840;28;20057;-74
2023/03/04 11:09:22;;;;;;;34.67;16.88;;;1.60;99.90;;;;;;4961803;28;20449;-74
2023/03/04 11:11:50;;;;;;;43.17;19.27;;;1.70;99.90;;;;;;4966678;28;20030;-73
2023/03/04 11:14:20;;;;;;;40.15;18.35;;;1.80;99.90;;;;;;4966223;28;20527;-74
2023/03/04 11:16:55;;;;;;;37.17;17.08;;;1.80;99.90;;;;;;4970793;28;20035;-72
2023/03/04 11:19:24;;;;;;;34.92;16.35;;;1.80;99.90;;;;;;4965626;28;20033;-71
2023/03/04 11:21:51;;;;;;;35.83;16.25;;;1.80;99.90;;;;;;4967251;28;20483;-72
2023/03/04 11:24:25;;;;;;;32.88;15.00;;;1.90;99.90;;;;;;4967336;28;20511;-72
2023/03/04 11:27:24;;;;;;;30.95;14.90;;;1.80;99.90;;;;;;4967579;28;20042;-71
2023/03/04 11:30:03;;;;;;;32.60;15.10;;;1.90;99.90;;;;;;4960797;28;20030;-71
2023/03/04 11:32:38;;;;;;;32.88;15.57;;;1.90;99.90;;;;;;4966268;28;20464;-73
2023/03/04 11:35:28;;;;;;;37.45;15.32;;;2.00;99.90;;;;;;4964864;28;20042;-72
2023/03/04 11:38:06;;;;;;;35.00;15.05;;;2.00;99.90;;;;;;4963671;28;20031;-72
2023/03/04 11:40:53;;;;;;;33.33;14.95;;;2.10;99.90;;;;;;4964969;28;20023;-72
2023/03/04 11:43:33;;;;;;;36.08;16.98;;;2.10;99.90;;;;;;4967651;28;20034;-72
2023/03/04 11:46:36;;;;;;;34.95;16.38;;;2.10;99.90;;;;;;4963635;28;20313;-72
2023/03/04 11:49:08;;;;;;;33.72;15.43;;;2.20;99.90;;;;;;4968402;28;20023;-72
2023/03/04 11:51:42;;;;;;;37.67;16.92;;;2.20;99.90;;;;;;4961917;28;20036;-73
2023/03/04 11:54:22;;;;;;;44.78;18.17;;;2.20;99.90;;;;;;4963451;28;20027;-72
2023/03/04 11:57:22;;;;;;;34.03;14.82;;;2.20;99.90;;;;;;4961723;28;20063;-73
2023/03/04 12:00:05;;;;;;;35.88;16.13;;;2.20;99.90;;;;;;4970655;28;20035;-72
2023/03/04 12:02:46;;;;;;;34.78;17.23;;;2.10;99.90;;;;;;4969871;28;20035;-74
2023/03/04 12:05:22;;;;;;;38.25;16.80;;;2.10;99.90;;;;;;4973114;28;20038;-72
2023/03/04 12:08:11;;;;;;;43.70;17.95;;;2.10;99.90;;;;;;4974689;28;20046;-72
2023/03/04 12:11:13;;;;;;;37.17;17.55;;;2.10;99.90;;;;;;4974407;28;20022;-71
2023/03/04 12:13:47;;;;;;;41.05;16.58;;;2.20;99.90;;;;;;4966537;28;20034;-74
2023/03/04 12:16:31;;;;;;;43.45;16.60;;;2.30;99.90;;;;;;4971562;28;20038;-71
2023/03/04 12:19:08;;;;;;;38.67;16.35;;;2.30;99.90;;;;;;4969353;28;20050;-72
2023/03/04 12:22:01;;;;;;;38.33;16.67;;;2.30;99.90;;;;;;4969197;28;20027;-71
2023/03/04 12:24:45;;;;;;;40.58;17.63;;;2.30;99.90;;;;;;4970321;28;20029;-72
2023/03/04 12:27:17;;;;;;;37.67;17.13;;;2.40;99.90;;;;;;4966900;28;20151;-72
2023/03/04 12:30:23;;;;;;;35.88;17.17;;;2.40;99.90;;;;;;4966180;28;20035;-72
2023/03/04 12:33:28;;;;;;;46.00;18.13;;;2.60;99.90;;;;;;4982081;28;20166;-74
2023/03/04 12:36:28;;;;;;;34.95;15.60;;;2.80;99.90;;;;;;4965062;28;20122;-71
2023/03/04 12:39:16;;;;;;;31.80;15.15;;;2.80;99.90;;;;;;4971655;28;20140;-71
2023/03/04 12:41:51;;;;;;;32.95;16.15;;;2.90;99.90;;;;;;4987149;28;20038;-72
2023/03/04 12:44:19;;;;;;;38.53;18.20;;;3.00;99.90;;;;;;4970350;28;20030;-71